Time;durP1;ratioP1;P1;durP2;ratioP2;P2;SDS_P1;SDS_P2;PMS_P1;PMS_P2;Temp;Humidity;BMP_temperature;BMP_pressure;BME280_temperature;BME280_humidity;BME280_pressure;Samples;Min_cycle;Max_cycle;Signal;HPM_P1;HPM_P2
2023/11/12 00:01:14;;;;;;;33.27;17.80;;;6.70;99.90;;;;;;7285353;19;20194;-77
2023/11/12 00:03:39;;;;;;;31.23;18.90;;;6.70;99.90;;;;;;7285392;19;20195;-76
2023/11/12 00:06:05;;;;;;;28.83;17.47;;;6.70;99.90;;;;;;7307017;19;20181;-77
2023/11/12 00:08:32;;;;;;;33.10;18.30;;;6.80;99.90;;;;;;7286701;19;20185;-76
2023/11/12 00:10:57;;;;;;;28.50;17.63;;;6.70;99.90;;;;;;7285220;19;20506;-76
2023/11/12 00:13:23;;;;;;;25.47;17.47;;;6.60;99.90;;;;;;7284398;19;20196;-77
2023/11/12 00:15:49;;;;;;;32.20;18.20;;;6.50;99.90;;;;;;7284449;19;20184;-77
2023/11/12 00:18:16;;;;;;;28.03;17.57;;;6.50;99.90;;;;;;7283714;19;20213;-77
2023/11/12 00:20:42;;;;;;;30.67;17.50;;;6.60;99.90;;;;;;7284849;19;20193;-77
2023/11/12 00:23:08;;;;;;;31.40;18.40;;;6.60;99.90;;;;;;7289179;19;20663;-76
2023/11/12 00:25:34;;;;;;;28.60;16.67;;;6.60;99.90;;;;;;7306268;19;20192;-77
2023/11/12 00:28:00;;;;;;;31.53;17.13;;;6.60;99.90;;;;;;7285229;19;20193;-77
2023/11/12 00:30:26;;;;;;;32.33;17.73;;;6.50;99.90;;;;;;7283560;19;21467;-77
2023/11/12 00:32:52;;;;;;;30.70;17.57;;;6.40;99.90;;;;;;7284324;19;20256;-77
2023/11/12 00:35:18;;;;;;;31.40;17.03;;;6.20;99.90;;;;;;7284225;19;20194;-77
2023/11/12 00:37:46;;;;;;;30.20;16.60;;;6.20;99.90;;;;;;7283584;19;20184;-78
2023/11/12 00:40:14;;;;;;;26.90;16.17;;;6.20;99.90;;;;;;7284666;19;20240;-77
2023/11/12 00:42:40;;;;;;;29.70;17.00;;;6.00;99.90;;;;;;7282897;19;20179;-76
2023/11/12 00:45:06;;;;;;;32.80;16.80;;;6.00;99.90;;;;;;7304485;19;20536;-77
2023/11/12 00:47:32;;;;;;;29.83;15.80;;;6.00;99.90;;;;;;7284200;19;20619;-78
2023/11/12 00:49:58;;;;;;;28.97;16.83;;;6.10;99.90;;;;;;7283182;19;20182;-77
2023/11/12 00:52:23;;;;;;;29.37;15.97;;;6.20;99.90;;;;;;7281953;19;20570;-78
2023/11/12 00:54:49;;;;;;;27.63;15.97;;;6.10;99.90;;;;;;7283957;19;20189;-78
2023/11/12 00:57:15;;;;;;;30.63;16.13;;;6.30;99.90;;;;;;7283014;19;20698;-79
2023/11/12 00:59:42;;;;;;;27.80;15.43;;;6.40;99.90;;;;;;7282923;19;20184;-78
2023/11/12 01:02:09;;;;;;;25.87;15.17;;;6.50;99.90;;;;;;7289311;19;20676;-78
2023/11/12 01:04:35;;;;;;;29.70;15.60;;;6.40;99.90;;;;;;7301464;19;20180;-77
2023/11/12 01:07:02;;;;;;;29.83;16.37;;;6.40;99.90;;;;;;7281900;19;20176;-78
2023/11/12 01:09:28;;;;;;;27.07;15.50;;;6.40;99.90;;;;;;7286853;19;20308;-78
2023/11/12 01:11:54;;;;;;;30.70;15.33;;;6.50;99.90;;;;;;7284650;19;20189;-78
2023/11/12 01:14:20;;;;;;;28.70;15.30;;;6.60;99.90;;;;;;7285358;19;20612;-77
2023/11/12 01:16:46;;;;;;;24.00;14.53;;;6.70;99.90;;;;;;7284370;19;20659;-78
2023/11/12 01:19:12;;;;;;;24.30;13.70;;;6.70;99.90;;;;;;7283889;19;20197;-77
2023/11/12 01:21:38;;;;;;;26.03;15.00;;;6.70;99.90;;;;;;7286471;19;20184;-77
2023/11/12 01:24:05;;;;;;;25.47;14.17;;;6.70;99.90;;;;;;7305592;19;20526;-78
2023/11/12 01:26:31;;;;;;;26.67;15.23;;;6.70;99.90;;;;;;7282605;19;20195;-77
2023/11/12 01:28:57;;;;;;;28.17;14.90;;;6.80;99.90;;;;;;7280471;19;20206;-77
2023/11/12 01:31:23;;;;;;;28.53;15.43;;;6.70;99.90;;;;;;7278569;19;20202;-77
2023/11/12 01:33:49;;;;;;;30.00;15.97;;;6.60;99.90;;;;;;7282072;19;20200;-78
2023/11/12 01:36:15;;;;;;;30.97;16.60;;;6.70;99.90;;;;;;7280956;19;20259;-77
2023/11/12 01:38:41;;;;;;;29.53;16.27;;;6.60;99.90;;;;;;7279961;19;20187;-77
2023/11/12 01:41:07;;;;;;;25.93;16.30;;;6.60;99.90;;;;;;7291444;19;20205;-76
2023/11/12 01:43:34;;;;;;;29.33;15.93;;;6.70;99.90;;;;;;7299509;19;20561;-77
2023/11/12 01:46:04;;;;;;;28.50;16.10;;;6.90;99.90;;;;;;7281659;19;20192;-77
2023/11/12 01:48:30;;;;;;;28.30;17.00;;;7.00;99.90;;;;;;7282966;19;20189;-76
2023/11/12 01:50:58;;;;;;;30.07;17.00;;;7.10;99.90;;;;;;7280357;19;21063;-77
2023/11/12 01:53:25;;;;;;;28.40;16.60;;;6.90;99.90;;;;;;7281711;19;20193;-77
2023/11/12 01:55:54;;;;;;;30.53;16.37;;;6.80;99.90;;;;;;7280618;19;20192;-76
2023/11/12 01:58:20;;;;;;;30.03;17.33;;;6.80;99.90;;;;;;7278644;19;20195;-78
2023/11/12 02:00:46;;;;;;;27.73;16.50;;;7.00;99.90;;;;;;7281710;19;20268;-77
2023/11/12 02:03:16;;;;;;;30.83;16.33;;;6.90;99.90;;;;;;7276653;19;20192;-76
2023/11/12 02:05:42;;;;;;;34.47;15.83;;;7.00;99.90;;;;;;7279768;19;20197;-77
2023/11/12 02:08:12;;;;;;;30.63;15.27;;;7.00;99.90;;;;;;7280118;19;20277;-77
2023/11/12 02:10:38;;;;;;;27.87;14.80;;;6.90;99.90;;;;;;7282728;19;20195;-77
2023/11/12 02:13:06;;;;;;;26.97;14.20;;;6.80;99.90;;;;;;7301046;19;20207;-77
2023/11/12 02:15:34;;;;;;;31.80;15.03;;;6.70;99.90;;;;;;7281072;19;20178;-77
2023/11/12 02:18:00;;;;;;;30.07;15.20;;;6.60;99.90;;;;;;7283440;19;20189;-76
2023/11/12 02:20:27;;;;;;;31.97;14.60;;;6.70;99.90;;;;;;7285617;19;20528;-77
2023/11/12 02:22:55;;;;;;;25.53;14.67;;;6.70;99.90;;;;;;7286735;19;20871;-77
2023/11/12 02:25:21;;;;;;;27.37;14.00;;;6.70;99.90;;;;;;7286373;19;20181;-77
2023/11/12 02:27:48;;;;;;;24.60;12.87;;;6.70;99.90;;;;;;7287063;19;20672;-77
2023/11/12 02:30:15;;;;;;;26.07;12.67;;;6.70;99.90;;;;;;7286620;19;20296;-78
2023/11/12 02:32:41;;;;;;;25.87;13.03;;;6.80;99.90;;;;;;7285726;19;20199;-77
2023/11/12 02:35:07;;;;;;;29.90;13.33;;;6.70;99.90;;;;;;7304766;19;20184;-75
2023/11/12 02:37:33;;;;;;;23.20;12.23;;;6.70;99.90;;;;;;7304892;19;20186;-77
2023/11/12 02:39:59;;;;;;;23.27;11.73;;;6.80;99.90;;;;;;7288156;19;20185;-77
2023/11/12 02:42:27;;;;;;;22.77;12.50;;;6.70;99.90;;;;;;7285797;19;20197;-77
2023/11/12 02:44:53;;;;;;;26.37;11.73;;;6.80;99.90;;;;;;7285839;19;20189;-77
2023/11/12 02:47:19;;;;;;;21.57;11.77;;;6.80;99.90;;;;;;7286607;19;20195;-77
2023/11/12 02:50:06;;;;;;;25.30;12.50;;;6.70;99.90;;;;;;7285970;19;20188;-77
2023/11/12 02:52:33;;;;;;;25.17;12.00;;;6.70;99.90;;;;;;7287570;19;20185;-77
2023/11/12 02:54:59;;;;;;;24.20;11.70;;;6.70;99.90;;;;;;7287393;19;20298;-76
2023/11/12 02:57:26;;;;;;;22.83;11.17;;;6.70;99.90;;;;;;7287467;19;20652;-77
2023/11/12 02:59:55;;;;;;;21.50;10.90;;;6.80;99.90;;;;;;7287836;19;20181;-77
2023/11/12 03:02:22;;;;;;;25.50;11.37;;;6.80;99.90;;;;;;7284452;19;20211;-77
2023/11/12 03:04:49;;;;;;;20.47;10.37;;;6.70;99.90;;;;;;7285287;19;20200;-77
2023/11/12 03:07:15;;;;;;;21.47;11.07;;;6.60;99.90;;;;;;7285620;19;20177;-77
2023/11/12 03:09:40;;;;;;;21.87;11.10;;;6.60;99.90;;;;;;7285341;19;20190;-76
2023/11/12 03:12:06;;;;;;;24.20;10.97;;;6.60;99.90;;;;;;7307117;19;20179;-77
2023/11/12 03:14:33;;;;;;;22.30;10.73;;;6.50;99.90;;;;;;7285636;19;20265;-77
2023/11/12 03:16:59;;;;;;;25.37;12.00;;;6.60;99.90;;;;;;7285556;19;20205;-77
2023/11/12 03:19:25;;;;;;;24.63;11.50;;;6.70;99.90;;;;;;7285292;19;20187;-77
2023/11/12 03:21:52;;;;;;;27.90;12.03;;;6.70;99.90;;;;;;7284660;19;20192;-77
2023/11/12 03:24:19;;;;;;;23.47;11.60;;;6.70;99.90;;;;;;7285881;19;20272;-77
2023/11/12 03:26:45;;;;;;;24.43;12.30;;;6.70;99.90;;;;;;7285441;19;20212;-77
2023/11/12 03:29:11;;;;;;;25.63;13.23;;;6.80;99.90;;;;;;7285298;19;20193;-76
2023/11/12 03:31:37;;;;;;;27.50;13.23;;;6.90;99.90;;;;;;7301325;19;20656;-75
2023/11/12 03:34:04;;;;;;;33.50;13.30;;;7.00;99.90;;;;;;7303034;19;20191;-77
2023/11/12 03:36:30;;;;;;;30.00;13.97;;;7.10;99.90;;;;;;7283236;19;20199;-78
2023/11/12 03:38:55;;;;;;;30.03;13.07;;;7.10;99.90;;;;;;7285299;19;20201;-78
2023/11/12 03:41:21;;;;;;;28.10;13.63;;;7.00;99.90;;;;;;7285337;19;20195;-77
2023/11/12 03:43:47;;;;;;;34.27;13.80;;;7.00;99.90;;;;;;7284793;19;20192;-77
2023/11/12 03:46:13;;;;;;;27.50;13.80;;;7.10;99.90;;;;;;7285307;19;20709;-77
2023/11/12 03:48:39;;;;;;;33.10;14.23;;;7.10;99.90;;;;;;7286843;19;20548;-77
2023/11/12 03:51:04;;;;;;;31.47;13.73;;;7.10;99.90;;;;;;7306896;19;20297;-78
2023/11/12 03:53:30;;;;;;;33.33;14.40;;;7.20;99.90;;;;;;7285828;19;20189;-77
2023/11/12 03:55:56;;;;;;;29.27;13.77;;;7.20;99.90;;;;;;7282651;19;20218;-78
2023/11/12 03:58:22;;;;;;;30.43;14.23;;;7.20;99.90;;;;;;7285504;19;20256;-77
2023/11/12 04:00:47;;;;;;;31.93;14.57;;;7.10;99.90;;;;;;7282151;19;20193;-77
2023/11/12 04:03:14;;;;;;;34.63;14.50;;;7.10;99.90;;;;;;7283684;19;20188;-77
2023/11/12 04:05:41;;;;;;;27.50;13.73;;;7.30;99.90;;;;;;7285412;19;20276;-78
2023/11/12 04:08:07;;;;;;;28.87;14.13;;;7.40;99.90;;;;;;7302414;19;20186;-77
2023/11/12 04:10:33;;;;;;;30.20;14.13;;;7.50;99.90;;;;;;7296697;19;20189;-77
2023/11/12 04:12:59;;;;;;;26.27;14.63;;;7.60;99.90;;;;;;7283113;19;20181;-78
2023/11/12 04:15:25;;;;;;;29.63;14.47;;;7.80;99.90;;;;;;7283747;19;20640;-77
2023/11/12 04:17:51;;;;;;;28.47;14.20;;;7.80;99.90;;;;;;7283227;19;20193;-77
2023/11/12 04:20:17;;;;;;;29.53;14.30;;;7.70;99.90;;;;;;7282329;19;20212;-77
2023/11/12 04:22:42;;;;;;;24.53;13.63;;;7.80;99.90;;;;;;7284834;19;20185;-78
2023/11/12 04:25:09;;;;;;;28.47;13.40;;;7.80;99.90;;;;;;7283650;19;20184;-76
2023/11/12 04:27:37;;;;;;;28.10;13.50;;;7.70;99.90;;;;;;7306001;19;20537;-77
2023/11/12 04:30:06;;;;;;;25.43;13.10;;;7.80;99.90;;;;;;7283360;19;20205;-77
2023/11/12 04:32:35;;;;;;;29.23;13.13;;;7.70;99.90;;;;;;7281829;19;20187;-77
2023/11/12 04:35:01;;;;;;;27.13;12.97;;;7.80;99.90;;;;;;7284444;19;20188;-77
2023/11/12 04:37:27;;;;;;;25.43;13.47;;;7.80;99.90;;;;;;7281369;19;20220;-77
2023/11/12 04:39:52;;;;;;;27.73;13.20;;;7.90;99.90;;;;;;7281087;19;20189;-77
2023/11/12 04:42:18;;;;;;;25.93;13.00;;;7.80;99.90;;;;;;7283232;19;20189;-77
2023/11/12 04:44:44;;;;;;;32.40;13.30;;;7.90;99.90;;;;;;7282053;19;20510;-78
2023/11/12 04:47:10;;;;;;;30.17;13.33;;;7.80;99.90;;;;;;7282758;19;20185;-77
2023/11/12 04:49:37;;;;;;;29.70;14.03;;;7.80;99.90;;;;;;7305201;19;20184;-78
2023/11/12 04:52:04;;;;;;;27.30;13.97;;;7.90;99.90;;;;;;7283666;19;20695;-78
2023/11/12 04:54:30;;;;;;;28.63;14.17;;;7.80;99.90;;;;;;7282911;19;20654;-78
2023/11/12 04:56:56;;;;;;;29.60;14.60;;;7.80;99.90;;;;;;7282650;19;20188;-77
2023/11/12 04:59:22;;;;;;;29.43;15.43;;;7.70;99.90;;;;;;7283609;19;20187;-78
2023/11/12 05:01:49;;;;;;;26.37;14.20;;;7.80;99.90;;;;;;7282062;19;20600;-78
2023/11/12 05:04:16;;;;;;;28.77;14.80;;;7.70;99.90;;;;;;7282264;19;20262;-77
2023/11/12 05:06:42;;;;;;;28.87;14.30;;;7.80;99.90;;;;;;7282610;19;20664;-77
2023/11/12 05:09:08;;;;;;;29.20;14.37;;;7.80;99.90;;;;;;7299135;19;20185;-77
2023/11/12 05:11:36;;;;;;;30.33;15.23;;;7.80;99.90;;;;;;7303373;19;20606;-78
2023/11/12 05:14:02;;;;;;;33.10;14.87;;;7.80;99.90;;;;;;7282707;19;20188;-77
2023/11/12 05:16:28;;;;;;;31.73;15.00;;;7.80;99.90;;;;;;7281270;19;20631;-77
2023/11/12 05:18:54;;;;;;;34.03;15.70;;;7.60;99.90;;;;;;7283179;19;20656;-77
2023/11/12 05:21:20;;;;;;;34.33;16.10;;;7.70;99.90;;;;;;7281666;19;20192;-78
2023/11/12 05:23:45;;;;;;;31.03;15.60;;;7.70;99.90;;;;;;7281981;19;20655;-78
2023/11/12 05:26:13;;;;;;;31.07;16.67;;;7.70;99.90;;;;;;7282045;19;20186;-79
2023/11/12 05:28:39;;;;;;;30.40;15.43;;;7.70;99.90;;;;;;7281672;19;20189;-77
2023/11/12 05:31:05;;;;;;;32.33;15.73;;;7.80;99.90;;;;;;7301904;19;20203;-78
2023/11/12 05:33:31;;;;;;;35.90;15.97;;;7.90;99.90;;;;;;7280912;19;20648;-78
2023/11/12 05:35:57;;;;;;;31.80;15.63;;;7.70;99.90;;;;;;7281093;19;21598;-78
2023/11/12 05:38:23;;;;;;;30.57;15.47;;;7.70;99.90;;;;;;7281766;19;20184;-78
2023/11/12 05:40:48;;;;;;;36.10;17.00;;;7.60;99.90;;;;;;7282273;19;20254;-78
2023/11/12 05:43:14;;;;;;;36.17;17.03;;;7.70;99.90;;;;;;7281200;19;20188;-78
2023/11/12 05:45:40;;;;;;;34.37;16.50;;;7.80;99.90;;;;;;7280058;19;20557;-77
2023/11/12 05:48:07;;;;;;;33.77;17.27;;;7.90;99.90;;;;;;7303788;19;20225;-78
2023/11/12 05:50:33;;;;;;;33.20;16.70;;;7.90;99.90;;;;;;7282701;19;20193;-78
2023/11/12 05:52:59;;;;;;;34.50;16.87;;;7.90;99.90;;;;;;7284362;19;20927;-78
2023/11/12 05:55:25;;;;;;;28.87;15.90;;;7.90;99.90;;;;;;7287262;19;20192;-78
2023/11/12 05:57:51;;;;;;;29.90;15.40;;;8.00;99.90;;;;;;7286153;19;20188;-78
2023/11/12 06:00:17;;;;;;;28.17;15.27;;;7.80;99.90;;;;;;7288814;19;20184;-78
2023/11/12 06:02:43;;;;;;;31.60;15.50;;;7.80;99.90;;;;;;7288254;19;20189;-78
2023/11/12 06:05:09;;;;;;;27.77;14.97;;;7.80;99.90;;;;;;7294378;19;20723;-77
2023/11/12 06:07:35;;;;;;;30.33;15.70;;;7.80;99.90;;;;;;7312637;19;20209;-78
2023/11/12 06:10:01;;;;;;;32.10;15.60;;;7.80;99.90;;;;;;7288523;19;20907;-78
2023/11/12 06:12:27;;;;;;;31.37;15.10;;;7.80;99.90;;;;;;7288896;19;20310;-77
2023/11/12 06:14:53;;;;;;;35.07;15.90;;;7.90;99.90;;;;;;7290171;19;20283;-77
2023/11/12 06:17:18;;;;;;;30.43;15.10;;;7.90;99.90;;;;;;7287538;19;20181;-78
2023/11/12 06:19:44;;;;;;;32.67;16.03;;;8.00;99.90;;;;;;7288727;19;20550;-78
2023/11/12 06:22:10;;;;;;;28.03;15.70;;;7.90;99.90;;;;;;7289130;19;20182;-77
2023/11/12 06:24:36;;;;;;;30.80;16.40;;;8.00;99.90;;;;;;7309575;19;20192;-80
2023/11/12 06:27:01;;;;;;;28.83;14.90;;;8.10;99.90;;;;;;7286991;19;20216;-78
2023/11/12 06:29:27;;;;;;;28.63;14.93;;;8.20;99.90;;;;;;7288456;19;20309;-78
2023/11/12 06:31:53;;;;;;;29.80;14.47;;;8.20;99.90;;;;;;7288110;19;20829;-77
2023/11/12 06:34:19;;;;;;;27.37;14.37;;;8.40;99.90;;;;;;7287483;19;20640;-79
2023/11/12 06:36:44;;;;;;;25.43;13.67;;;8.50;99.90;;;;;;7287785;19;20208;-78
2023/11/12 06:39:13;;;;;;;27.83;13.27;;;8.40;99.90;;;;;;7287532;19;20181;-78
2023/11/12 06:41:42;;;;;;;27.47;13.03;;;8.30;99.90;;;;;;7293702;19;20185;-77
2023/11/12 06:44:09;;;;;;;28.37;13.63;;;8.10;99.90;;;;;;7298034;19;20291;-77
2023/11/12 06:46:36;;;;;;;24.73;13.77;;;8.00;99.90;;;;;;7309603;19;20212;-78
2023/11/12 06:49:02;;;;;;;25.30;13.40;;;8.00;99.90;;;;;;7284500;19;20195;-78
2023/11/12 06:51:28;;;;;;;29.00;14.43;;;8.00;99.90;;;;;;7285118;19;20202;-78
2023/11/12 06:53:54;;;;;;;31.63;15.10;;;8.20;99.90;;;;;;7284708;19;20256;-78
2023/11/12 06:56:20;;;;;;;25.07;14.10;;;8.20;99.90;;;;;;7285355;19;20257;-78
2023/11/12 06:58:48;;;;;;;26.63;14.47;;;8.10;99.90;;;;;;7287136;19;20189;-77
2023/11/12 07:01:14;;;;;;;29.17;14.40;;;8.10;99.90;;;;;;7285856;19;20193;-77
2023/11/12 07:03:40;;;;;;;29.07;15.23;;;8.10;99.90;;;;;;7284359;19;20197;-76
2023/11/12 07:06:06;;;;;;;31.43;15.33;;;8.20;99.90;;;;;;7307348;19;20197;-77
2023/11/12 07:08:32;;;;;;;29.93;14.73;;;8.40;99.90;;;;;;7286621;19;20185;-77
2023/11/12 07:10:58;;;;;;;36.07;15.87;;;8.40;99.90;;;;;;7287844;19;20205;-76
2023/11/12 07:13:24;;;;;;;31.67;15.47;;;8.40;99.90;;;;;;7287360;19;20197;-76
2023/11/12 07:15:50;;;;;;;37.67;16.07;;;8.40;99.90;;;;;;7285038;19;20193;-77
2023/11/12 07:18:16;;;;;;;33.10;16.00;;;8.40;99.90;;;;;;7286837;19;20201;-77
2023/11/12 07:20:41;;;;;;;33.53;13.93;;;8.50;99.90;;;;;;7285226;19;20202;-77
2023/11/12 07:23:07;;;;;;;31.80;14.73;;;8.40;99.90;;;;;;7307666;19;20194;-78
2023/11/12 07:25:33;;;;;;;35.57;14.80;;;8.50;99.90;;;;;;7286571;19;20189;-78
2023/11/12 07:27:59;;;;;;;29.53;15.10;;;8.50;99.90;;;;;;7287526;19;20888;-78
2023/11/12 07:30:24;;;;;;;31.33;14.70;;;8.40;99.90;;;;;;7286080;19;20593;-78
2023/11/12 07:32:50;;;;;;;31.60;14.90;;;8.40;99.90;;;;;;7286285;19;20237;-78
2023/11/12 07:35:16;;;;;;;33.80;15.63;;;8.30;99.90;;;;;;7286066;19;20209;-77
2023/11/12 07:37:42;;;;;;;40.17;19.07;;;8.30;99.90;;;;;;7283991;19;20185;-77
2023/11/12 07:40:12;;;;;;;41.40;19.27;;;8.50;99.90;;;;;;7307668;19;20621;-75
2023/11/12 07:42:39;;;;;;;45.63;19.97;;;8.50;99.90;;;;;;7305683;19;20188;-76
2023/11/12 07:45:08;;;;;;;30.70;15.67;;;8.40;99.90;;;;;;7308477;19;20283;-78
2023/11/12 07:47:35;;;;;;;29.60;13.67;;;8.50;99.90;;;;;;7286878;19;20189;-78
2023/11/12 07:50:08;;;;;;;24.17;12.70;;;8.60;99.90;;;;;;7285599;19;20214;-77
2023/11/12 07:52:35;;;;;;;22.60;12.47;;;8.60;99.90;;;;;;7284222;19;20699;-78
2023/11/12 07:55:01;;;;;;;25.93;13.03;;;8.80;99.90;;;;;;7284396;19;20665;-78
2023/11/12 07:57:27;;;;;;;32.27;13.93;;;8.80;99.90;;;;;;7283992;19;20250;-79
2023/11/12 07:59:53;;;;;;;30.40;13.10;;;8.90;99.90;;;;;;7285531;19;20207;-78
2023/11/12 08:02:20;;;;;;;28.77;12.70;;;9.00;99.90;;;;;;7281221;19;20213;-78
2023/11/12 08:04:47;;;;;;;26.47;10.97;;;9.00;99.90;;;;;;7286269;19;20184;-78
2023/11/12 08:07:13;;;;;;;23.60;10.83;;;8.90;99.90;;;;;;7285397;19;20308;-78
2023/11/12 08:09:43;;;;;;;24.60;10.17;;;9.00;99.90;;;;;;7292589;19;20218;-78
2023/11/12 08:12:09;;;;;;;25.37;10.30;;;8.90;99.90;;;;;;7291086;19;20289;-77
2023/11/12 08:14:38;;;;;;;22.13;10.23;;;8.90;99.90;;;;;;7306332;19;20198;-78
2023/11/12 08:17:04;;;;;;;22.33;9.50;;;9.00;99.90;;;;;;7284111;19;20189;-78
2023/11/12 08:19:29;;;;;;;16.80;8.20;;;9.00;99.90;;;;;;7285333;19;20197;-78
2023/11/12 08:21:55;;;;;;;18.60;8.93;;;9.00;99.90;;;;;;7283622;19;20205;-78
2023/11/12 08:24:21;;;;;;;19.90;7.90;;;8.90;99.90;;;;;;7283812;19;20193;-78
2023/11/12 08:26:47;;;;;;;17.23;7.57;;;8.80;99.90;;;;;;7285258;19;20196;-78
2023/11/12 08:29:13;;;;;;;16.97;7.73;;;8.80;99.90;;;;;;7284960;19;20205;-77
2023/11/12 08:31:39;;;;;;;14.63;7.33;;;8.70;99.90;;;;;;7286299;19;20201;-77
2023/11/12 08:34:06;;;;;;;17.67;7.73;;;8.70;99.90;;;;;;7306516;19;20622;-77
2023/11/12 08:36:32;;;;;;;14.43;7.00;;;8.80;99.90;;;;;;7281874;19;20261;-77
2023/11/12 08:38:58;;;;;;;16.60;6.47;;;8.80;99.90;;;;;;7283320;19;20214;-78
2023/11/12 08:41:24;;;;;;;17.07;7.33;;;8.80;99.90;;;;;;7283446;19;20222;-79
2023/11/12 08:43:52;;;;;;;15.10;6.67;;;9.00;99.90;;;;;;7281985;19;20189;-79
2023/11/12 08:46:19;;;;;;;15.23;6.63;;;9.00;99.90;;;;;;7282332;19;20194;-79
2023/11/12 08:48:45;;;;;;;14.50;6.20;;;9.10;99.90;;;;;;7284219;19;20191;-79
2023/11/12 08:51:11;;;;;;;17.50;6.47;;;9.30;99.90;;;;;;7284030;19;20220;-78
2023/11/12 08:53:39;;;;;;;13.33;5.80;;;9.20;99.90;;;;;;7305650;19;20189;-83
2023/11/12 08:56:06;;;;;;;16.43;5.80;;;9.40;99.90;;;;;;7285071;19;20194;-78
2023/11/12 08:58:32;;;;;;;13.83;5.60;;;9.40;99.90;;;;;;7281291;19;20193;-78
2023/11/12 09:00:58;;;;;;;14.77;5.23;;;9.40;99.90;;;;;;7285830;19;20845;-79
2023/11/12 09:03:23;;;;;;;14.40;5.37;;;9.40;99.90;;;;;;7283067;19;20262;-78
2023/11/12 09:05:49;;;;;;;14.50;6.47;;;9.30;99.90;;;;;;7282599;19;20207;-90
2023/11/12 09:08:16;;;;;;;11.73;5.40;;;9.40;99.90;;;;;;7284130;19;20190;-79
2023/11/12 09:10:42;;;;;;;15.87;5.63;;;9.40;99.90;;;;;;7280422;19;20191;-79
2023/11/12 09:13:09;;;;;;;13.60;4.90;;;9.50;99.90;;;;;;7304232;19;20653;-77
2023/11/12 09:15:36;;;;;;;13.43;6.00;;;9.70;99.90;;;;;;7305009;19;20189;-79
2023/11/12 09:18:02;;;;;;;15.03;5.57;;;9.90;99.90;;;;;;7283586;19;20186;-79
2023/11/12 09:20:28;;;;;;;13.33;4.83;;;10.00;99.90;;;;;;7283392;19;20210;-79
2023/11/12 09:22:54;;;;;;;12.57;4.57;;;10.20;99.90;;;;;;7283090;19;20191;-79
2023/11/12 09:25:19;;;;;;;12.00;4.80;;;10.40;99.90;;;;;;7283774;19;20182;-79
2023/11/12 09:27:45;;;;;;;12.17;4.50;;;10.40;99.90;;;;;;7290086;19;20186;-79
2023/11/12 09:30:11;;;;;;;12.83;4.87;;;10.30;99.90;;;;;;7288516;19;20191;-79
2023/11/12 09:32:37;;;;;;;10.03;4.97;;;10.40;99.90;;;;;;7311133;19;20985;-79
2023/11/12 09:35:23;;;;;;;11.63;4.20;;;10.60;99.90;;;;;;7312936;19;20249;-79
2023/11/12 09:37:50;;;;;;;11.87;3.70;;;10.60;99.90;;;;;;7399536;19;20146;-76
2023/11/12 09:40:16;;;;;;;15.50;4.10;;;10.50;99.90;;;;;;7399679;19;20139;-78
2023/11/12 09:42:50;;;;;;;12.50;4.10;;;10.60;99.90;;;;;;7400737;19;20139;-79
2023/11/12 09:45:19;;;;;;;9.97;3.70;;;10.60;99.90;;;;;;7403266;19;20210;-78
2023/11/12 09:47:54;;;;;;;8.30;3.90;;;10.50;99.90;;;;;;7397924;19;20673;-78
2023/11/12 09:50:24;;;;;;;9.50;3.57;;;10.50;99.90;;;;;;7399578;19;20150;-78
2023/11/12 09:52:51;;;;;;;10.47;3.80;;;10.50;99.90;;;;;;7403215;19;20148;-76
2023/11/12 09:55:19;;;;;;;10.17;3.40;;;10.50;99.90;;;;;;7398815;19;20133;-79
2023/11/12 09:57:46;;;;;;;10.33;3.43;;;10.60;99.90;;;;;;7336010;19;20199;-79
2023/11/12 10:00:16;;;;;;;10.30;3.27;;;10.80;99.90;;;;;;7289637;19;20193;-78
2023/11/12 10:02:46;;;;;;;11.00;3.47;;;11.20;99.90;;;;;;7283452;19;20205;-76
2023/11/12 10:05:13;;;;;;;8.23;3.07;;;11.70;99.90;;;;;;7285675;19;20200;-76
2023/11/12 10:07:39;;;;;;;12.90;3.10;;;12.50;99.90;;;;;;7300025;19;20707;-76
2023/11/12 10:10:27;;;;;;;10.07;3.03;;;13.00;99.90;;;;;;7307731;19;20189;-77
2023/11/12 10:12:54;;;;;;;10.10;3.33;;;13.50;99.90;;;;;;7185221;19;2004607;-76
2023/11/12 10:15:25;;;;;;;9.13;2.80;;;13.80;99.90;;;;;;7286706;19;20219;-77
2023/11/12 10:17:54;;;;;;;9.60;3.20;;;14.00;99.90;;;;;;7287458;19;20195;-79
2023/11/12 10:20:28;;;;;;;8.67;3.27;;;13.80;99.90;;;;;;7287692;19;20654;-77
2023/11/12 10:22:54;;;;;;;10.73;4.93;;;13.70;99.90;;;;;;7286098;19;20553;-77
2023/11/12 10:25:40;;;;;;;11.50;3.97;;;13.70;99.90;;;;;;7288760;19;20258;-76
2023/11/12 10:28:07;;;;;;;36.17;21.93;;;13.70;99.90;;;;;;7287133;19;20199;-76
2023/11/12 10:30:34;;;;;;;9.07;3.40;;;13.80;99.90;;;;;;7285043;19;20221;-77
2023/11/12 10:33:19;;;;;;;10.17;4.57;;;13.70;99.90;;;;;;7288152;19;20254;-76
2023/11/12 10:35:46;;;;;;;16.47;6.57;;;13.30;99.90;;;;;;7184156;19;2004567;-77
2023/11/12 10:38:15;;;;;;;7.47;3.00;;;13.40;99.90;;;;;;7284338;19;20186;-76
2023/11/12 10:41:03;;;;;;;13.53;4.80;;;13.50;99.90;;;;;;7286243;19;20254;-77
2023/11/12 10:43:30;;;;;;;21.13;13.53;;;14.00;99.90;;;;;;7284737;19;20657;-76
2023/11/12 10:46:06;;;;;;;9.00;3.10;;;14.30;99.90;;;;;;7285478;19;20260;-77
2023/11/12 10:48:37;;;;;;;9.63;3.30;;;14.20;99.90;;;;;;7285998;19;20191;-76
2023/11/12 10:51:07;;;;;;;10.60;4.83;;;13.70;99.90;;;;;;7281357;19;20280;-76
2023/11/12 10:53:36;;;;;;;46.93;26.37;;;13.50;99.90;;;;;;7286335;19;20703;-77
2023/11/12 10:56:04;;;;;;;10.50;4.43;;;13.60;99.90;;;;;;7284378;19;20188;-77
2023/11/12 10:58:30;;;;;;;12.10;4.87;;;13.60;99.90;;;;;;7283696;19;20188;-76
2023/11/12 11:01:03;;;;;;;33.30;21.27;;;13.70;99.90;;;;;;7285246;19;20190;-76
2023/11/12 11:03:33;;;;;;;19.07;7.70;;;13.50;99.90;;;;;;7285091;19;20614;-76
2023/11/12 11:06:01;;;;;;;13.63;4.40;;;13.60;99.90;;;;;;7284532;19;20211;-78
2023/11/12 11:08:30;;;;;;;41.00;21.43;;;13.40;99.90;;;;;;7287667;19;20575;-82
2023/11/12 11:10:59;;;;;;;19.83;9.53;;;13.40;99.90;;;;;;7287649;19;20193;-82
2023/11/12 11:13:25;;;;;;;14.63;5.13;;;13.40;99.90;;;;;;7288992;19;20194;-82
2023/11/12 11:15:58;;;;;;;16.73;6.13;;;13.40;99.90;;;;;;7285137;19;20207;-82
2023/11/12 11:18:36;;;;;;;10.90;4.20;;;13.60;99.90;;;;;;7286698;19;20724;-82
2023/11/12 11:21:15;;;;;;;12.50;4.33;;;13.80;99.90;;;;;;7287494;19;20213;-82
2023/11/12 11:23:54;;;;;;;11.20;3.10;;;14.00;99.90;;;;;;7264128;19;20198;-81
2023/11/12 11:26:40;;;;;;;14.53;5.83;;;14.20;99.90;;;;;;7288443;19;20189;-82
2023/11/12 11:29:09;;;;;;;10.70;4.60;;;14.20;99.90;;;;;;7288237;19;20185;-82
2023/11/12 11:32:07;;;;;;;9.77;4.00;;;14.00;99.90;;;;;;7287444;19;20186;-82
2023/11/12 11:34:41;;;;;;;9.33;2.80;;;13.70;99.90;;;;;;7185343;19;2004651;-82
2023/11/12 11:37:08;;;;;;;8.43;3.00;;;13.60;99.90;;;;;;7282286;19;20285;-82
2023/11/12 11:39:35;;;;;;;11.90;3.07;;;13.70;99.90;;;;;;7288046;19;20189;-82
2023/11/12 11:42:06;;;;;;;6.53;2.40;;;13.70;99.90;;;;;;7289866;19;20665;-82
2023/11/12 11:44:37;;;;;;;7.70;2.67;;;13.50;99.90;;;;;;7282393;19;20184;-82
2023/11/12 11:47:15;;;;;;;12.93;3.87;;;13.30;99.90;;;;;;7288325;19;20213;-82
2023/11/12 11:50:13;;;;;;;19.73;8.10;;;13.20;99.90;;;;;;7260963;19;20187;-81
2023/11/12 11:52:39;;;;;;;23.27;12.30;;;13.10;99.90;;;;;;7278053;19;20189;-82
2023/11/12 11:55:27;;;;;;;66.27;36.47;;;13.10;99.90;;;;;;7302345;19;20634;-83
2023/11/12 11:57:56;;;;;;;9.90;3.50;;;13.00;99.90;;;;;;7183742;19;2004407;-82
2023/11/12 12:00:22;;;;;;;20.20;9.13;;;12.90;99.90;;;;;;7285722;19;20304;-83
2023/11/12 12:02:49;;;;;;;112.13;59.60;;;13.00;99.90;;;;;;7284948;19;20209;-82
2023/11/12 12:05:31;;;;;;;40.00;18.47;;;13.00;99.90;;;;;;7284144;19;20221;-82
2023/11/12 12:08:00;;;;;;;16.47;7.07;;;13.10;99.90;;;;;;7285027;19;20200;-83
2023/11/12 12:10:28;;;;;;;19.80;9.97;;;13.00;99.90;;;;;;7285264;19;20188;-81
2023/11/12 12:12:54;;;;;;;64.37;32.77;;;13.20;99.90;;;;;;7286133;19;20255;-82
2023/11/12 12:15:21;;;;;;;37.53;20.10;;;13.20;99.90;;;;;;7286920;19;20665;-82
2023/11/12 12:17:46;;;;;;;26.20;12.97;;;13.40;99.90;;;;;;7286437;19;20193;-81
2023/11/12 12:20:12;;;;;;;14.67;5.43;;;13.50;99.90;;;;;;7285402;19;20190;-81
2023/11/12 12:22:40;;;;;;;16.70;5.77;;;13.50;99.90;;;;;;7307586;19;20215;-81
2023/11/12 12:25:06;;;;;;;12.20;3.93;;;13.40;99.90;;;;;;7285341;19;20193;-82
2023/11/12 12:27:32;;;;;;;15.80;7.50;;;13.30;99.90;;;;;;7284134;19;20225;-82
2023/11/12 12:29:59;;;;;;;26.20;13.07;;;13.10;99.90;;;;;;7283532;19;20192;-83
2023/11/12 12:32:25;;;;;;;10.50;3.47;;;12.80;99.90;;;;;;7284082;19;20196;-83
2023/11/12 12:34:59;;;;;;;42.23;27.80;;;12.70;99.90;;;;;;7285525;19;20193;-83
2023/11/12 12:37:27;;;;;;;12.93;3.53;;;12.60;99.90;;;;;;7284029;19;20609;-82
2023/11/12 12:40:00;;;;;;;21.93;11.97;;;12.40;99.90;;;;;;7285355;19;20258;-82